createdAt,value
2022-09-11T00:01:31.013Z,0.90
2022-09-11T00:03:57.822Z,1.15
2022-09-11T00:06:29.687Z,0.98
2022-09-11T00:09:03.908Z,0.90
2022-09-11T00:11:35.182Z,1.17
2022-09-11T00:14:01.997Z,0.80
2022-09-11T00:16:36.325Z,0.90
2022-09-11T00:19:11.476Z,0.80
2022-09-11T00:21:37.950Z,0.93
2022-09-11T00:24:09.811Z,0.90
2022-09-11T00:26:37.150Z,1.00
2022-09-11T00:29:04.176Z,0.75
2022-09-11T00:31:32.208Z,1.00
2022-09-11T00:33:58.735Z,0.88
2022-09-11T00:36:31.418Z,0.70
2022-09-11T00:38:58.735Z,0.90
2022-09-11T00:41:29.515Z,0.82
2022-09-11T00:44:05.275Z,0.90
2022-09-11T00:46:40.753Z,0.80
2022-09-11T00:49:15.906Z,0.80
2022-09-11T00:51:46.504Z,0.93
2022-09-11T00:54:15.761Z,0.88
2022-09-11T00:56:43.176Z,0.85
2022-09-11T00:59:15.004Z,0.93
2022-09-11T01:01:41.934Z,1.33
2022-09-11T01:04:10.682Z,0.77
2022-09-11T01:06:37.087Z,0.93
2022-09-11T01:09:03.837Z,1.20
2022-09-11T01:11:59.418Z,1.35
2022-09-11T01:14:49.549Z,1.13
2022-09-11T01:17:34.099Z,1.23
2022-09-11T01:20:26.295Z,1.00
2022-09-11T01:23:04.864Z,1.00
2022-09-11T01:25:39.992Z,1.02
2022-09-11T01:28:18.033Z,0.77
2022-09-11T01:30:51.197Z,0.80
2022-09-11T01:33:29.530Z,1.20
2022-09-11T01:35:58.918Z,0.82
2022-09-11T01:38:31.569Z,1.25
2022-09-11T01:41:21.559Z,1.02
2022-09-11T01:43:56.580Z,1.08
2022-09-11T01:46:25.445Z,1.00
2022-09-11T01:49:28.235Z,0.90
2022-09-11T01:51:57.551Z,1.00
2022-09-11T01:54:29.822Z,0.98
2022-09-11T01:57:04.519Z,1.10
2022-09-11T01:59:40.436Z,1.00
2022-09-11T02:02:09.566Z,1.02
2022-09-11T02:04:45.705Z,1.10
2022-09-11T02:07:29.019Z,1.30
2022-09-11T02:10:04.825Z,1.10
2022-09-11T02:12:40.874Z,0.95
2022-09-11T02:15:10.127Z,1.10
2022-09-11T02:18:01.793Z,0.98
2022-09-11T02:20:31.588Z,1.00
2022-09-11T02:23:02.942Z,1.10
2022-09-11T02:25:34.235Z,1.05
2022-09-11T02:28:00.576Z,1.10
2022-09-11T02:30:26.911Z,1.00
2022-09-11T02:32:54.968Z,1.23
2022-09-11T02:35:26.438Z,1.23
2022-09-11T02:38:00.184Z,1.50
2022-09-11T02:41:09.136Z,1.27
2022-09-11T02:43:46.414Z,1.05
2022-09-11T02:46:29.871Z,1.25
2022-09-11T02:49:02.781Z,1.30
2022-09-11T02:51:43.616Z,1.48
2022-09-11T02:54:37.442Z,1.50
2022-09-11T02:57:18.963Z,1.17
2022-09-11T02:59:56.239Z,1.35
2022-09-11T03:02:24.477Z,1.10
2022-09-11T03:04:53.326Z,1.25
2022-09-11T03:07:19.699Z,1.25
2022-09-11T03:09:48.183Z,1.50
2022-09-11T03:12:15.052Z,1.38
2022-09-11T03:14:41.418Z,1.30
2022-09-11T03:17:07.817Z,1.52
2022-09-11T03:19:34.217Z,1.10
2022-09-11T03:22:05.296Z,1.38
2022-09-11T03:24:31.628Z,1.30
2022-09-11T03:26:58.021Z,1.42
2022-09-11T03:29:26.736Z,1.55
2022-09-11T03:31:58.721Z,1.30
2022-09-11T03:34:25.821Z,1.45
2022-09-11T03:36:54.508Z,1.40
2022-09-11T03:39:23.315Z,1.35
2022-09-11T03:41:49.635Z,1.45
2022-09-11T03:44:15.980Z,1.13
2022-09-11T03:46:42.330Z,1.38
2022-09-11T03:49:09.451Z,1.70
2022-09-11T03:51:35.829Z,1.10
2022-09-11T03:54:04.858Z,1.48
2022-09-11T03:56:31.737Z,1.20
2022-09-11T03:59:00.145Z,1.73
2022-09-11T04:01:27.148Z,1.90
2022-09-11T04:03:56.061Z,1.75
2022-09-11T04:06:22.594Z,1.55
2022-09-11T04:08:49.293Z,1.60
2022-09-11T04:11:16.496Z,1.90
2022-09-11T04:13:45.591Z,1.73
2022-09-11T04:16:18.465Z,1.95
2022-09-11T04:18:49.376Z,1.80
2022-09-11T04:21:17.745Z,1.90
2022-09-11T04:23:45.467Z,1.90
2022-09-11T04:26:19.742Z,1.92
2022-09-11T04:28:46.568Z,1.55
2022-09-11T04:31:14.072Z,1.80
2022-09-11T04:33:40.951Z,1.70
2022-09-11T04:36:08.858Z,1.73
2022-09-11T04:38:35.481Z,1.70
2022-09-11T04:41:03.703Z,2.10
2022-09-11T04:43:31.545Z,2.05
2022-09-11T04:46:24.264Z,2.58
2022-09-11T04:48:55.509Z,2.38
2022-09-11T04:51:22.760Z,2.40
2022-09-11T04:53:50.426Z,2.25
2022-09-11T04:56:17.666Z,2.20
2022-09-11T04:58:44.141Z,2.28
2022-09-11T05:01:13.662Z,2.47
2022-09-11T05:03:41.078Z,2.80
2022-09-11T05:06:10.770Z,2.25
2022-09-11T05:08:37.696Z,3.10
2022-09-11T05:11:07.372Z,2.83
2022-09-11T05:13:36.450Z,2.70
2022-09-11T05:16:11.191Z,2.15
2022-09-11T05:18:39.963Z,2.10
2022-09-11T05:21:09.187Z,2.08
2022-09-11T05:23:35.606Z,2.22
2022-09-11T05:26:06.833Z,2.55
2022-09-11T05:28:33.798Z,2.17
2022-09-11T05:31:00.376Z,2.13
2022-09-11T05:33:27.869Z,2.10
2022-09-11T05:35:57.077Z,2.53
2022-09-11T05:38:28.924Z,2.20
2022-09-11T05:40:55.330Z,2.72
2022-09-11T05:43:23.970Z,2.50
2022-09-11T05:45:56.838Z,2.58
2022-09-11T05:48:28.926Z,2.58
2022-09-11T05:50:59.494Z,2.63
2022-09-11T05:53:28.124Z,3.10
2022-09-11T05:55:55.027Z,3.20
2022-09-11T05:58:22.607Z,2.58
2022-09-11T06:00:49.438Z,3.00
2022-09-11T06:03:17.385Z,3.08
2022-09-11T06:05:46.128Z,2.95
2022-09-11T06:08:12.751Z,2.88
2022-09-11T06:10:50.458Z,3.40
2022-09-11T06:13:18.881Z,2.90
2022-09-11T06:15:49.176Z,2.53
2022-09-11T06:18:16.388Z,2.08
2022-09-11T06:20:42.776Z,2.03
2022-09-11T06:23:12.024Z,2.20
2022-09-11T06:25:38.816Z,2.80
2022-09-11T06:28:05.251Z,3.30
2022-09-11T06:30:31.674Z,2.97
2022-09-11T06:33:00.293Z,3.50
2022-09-11T06:35:26.618Z,3.55
2022-09-11T06:37:52.977Z,3.40
2022-09-11T06:40:19.439Z,3.10
2022-09-11T06:42:50.783Z,3.08
2022-09-11T06:45:17.692Z,2.60
2022-09-11T06:47:44.779Z,3.17
2022-09-11T06:50:14.456Z,3.08
2022-09-11T06:52:42.146Z,2.63
2022-09-11T06:55:13.334Z,3.35
2022-09-11T06:57:42.251Z,2.80
2022-09-11T07:00:10.355Z,3.08
2022-09-11T07:02:39.102Z,2.30
2022-09-11T07:05:05.753Z,2.90
2022-09-11T07:07:34.688Z,2.25
2022-09-11T07:10:04.906Z,3.10
2022-09-11T07:12:32.004Z,2.88
2022-09-11T07:14:58.630Z,2.85
2022-09-11T07:17:24.991Z,2.70
2022-09-11T07:19:51.840Z,3.17
2022-09-11T07:22:19.693Z,2.22
2022-09-11T07:24:47.261Z,3.00
2022-09-11T07:27:14.222Z,2.97
2022-09-11T07:29:40.640Z,2.78
2022-09-11T07:32:06.976Z,2.70
2022-09-11T07:34:33.378Z,3.13
2022-09-11T07:36:59.728Z,2.63
2022-09-11T07:39:28.202Z,2.53
2022-09-11T07:41:54.600Z,3.22
2022-09-11T07:44:23.448Z,2.78
2022-09-11T07:46:51.409Z,2.85
2022-09-11T07:49:17.784Z,2.67
2022-09-11T07:51:46.715Z,2.20
2022-09-11T07:54:17.985Z,2.28
2022-09-11T07:56:44.433Z,2.30
2022-09-11T07:59:10.785Z,2.30
2022-09-11T08:01:37.412Z,2.42
2022-09-11T08:04:06.227Z,2.60
2022-09-11T08:06:36.880Z,2.40
2022-09-11T08:09:06.141Z,2.20
2022-09-11T08:11:36.734Z,2.15
2022-09-11T08:14:03.358Z,3.38
2022-09-11T08:16:29.921Z,3.45
2022-09-11T08:18:59.220Z,3.13
2022-09-11T08:21:26.393Z,2.55
2022-09-11T08:23:52.852Z,2.67
2022-09-11T08:26:21.793Z,3.38
2022-09-11T08:28:50.709Z,3.22
2022-09-11T08:31:18.315Z,2.83
2022-09-11T08:33:49.712Z,3.03
2022-09-11T08:36:16.164Z,3.25
2022-09-11T08:38:43.619Z,2.72
2022-09-11T08:41:19.502Z,2.70
2022-09-11T08:43:50.791Z,2.40
2022-09-11T08:46:18.207Z,3.05
2022-09-11T08:49:02.422Z,2.67
2022-09-11T08:51:31.732Z,2.50
2022-09-11T08:54:03.778Z,2.83
2022-09-11T08:56:31.187Z,2.28
2022-09-11T08:59:18.984Z,2.08
2022-09-11T09:01:57.242Z,2.67
2022-09-11T09:04:50.881Z,2.15
2022-09-11T09:07:32.214Z,3.08
2022-09-11T09:10:29.080Z,2.25
2022-09-11T09:13:30.749Z,2.22
2022-09-11T09:16:06.239Z,1.65
2022-09-11T09:18:43.395Z,1.90
2022-09-11T09:21:39.834Z,2.83
2022-09-11T09:24:19.189Z,2.97
2022-09-11T09:26:58.840Z,3.13
2022-09-11T09:29:30.485Z,4.63
2022-09-11T09:32:13.350Z,2.10
2022-09-11T09:34:40.973Z,2.00
2022-09-11T09:37:23.642Z,2.03
2022-09-11T09:39:50.633Z,2.50
2022-09-11T09:42:23.072Z,2.30
2022-09-11T09:45:09.528Z,2.40
2022-09-11T09:47:41.173Z,2.67
2022-09-11T09:50:20.172Z,2.20
2022-09-11T09:52:48.824Z,2.53
2022-09-11T09:55:20.822Z,2.50
2022-09-11T09:57:47.194Z,2.88
2022-09-11T10:00:15.537Z,3.00
2022-09-11T10:02:47.368Z,3.00
2022-09-11T10:05:31.466Z,2.45
2022-09-11T10:08:00.216Z,2.30
2022-09-11T10:10:27.798Z,2.30
2022-09-11T10:13:24.922Z,3.90
2022-09-11T10:15:59.758Z,2.67
2022-09-11T10:18:32.269Z,2.63
2022-09-11T10:21:29.409Z,3.05
2022-09-11T10:24:02.198Z,3.50
2022-09-11T10:26:50.781Z,3.05
2022-09-11T10:29:24.735Z,3.17
2022-09-11T10:31:55.517Z,2.90
2022-09-11T10:34:25.834Z,4.30
2022-09-11T10:36:56.231Z,4.32
2022-09-11T10:39:24.807Z,3.80
2022-09-11T10:41:56.523Z,4.05
2022-09-11T10:44:24.149Z,3.10
2022-09-11T10:47:04.428Z,2.55
2022-09-11T10:49:33.673Z,2.85
2022-09-11T10:52:08.942Z,2.40
2022-09-11T10:54:58.376Z,2.40
2022-09-11T10:57:30.084Z,2.67
2022-09-11T11:00:11.575Z,2.63
2022-09-11T11:02:40.807Z,3.15
2022-09-11T11:05:13.793Z,4.00
2022-09-11T11:08:12.122Z,3.50
2022-09-11T11:10:46.912Z,2.60
2022-09-11T11:13:31.572Z,2.97
2022-09-11T11:16:06.991Z,3.30
2022-09-11T11:19:02.886Z,2.75
2022-09-11T11:21:53.810Z,3.45
2022-09-11T11:24:49.616Z,3.03
2022-09-11T11:27:39.652Z,2.83
2022-09-11T11:30:17.230Z,3.90
2022-09-11T11:32:46.827Z,3.70
2022-09-11T11:35:25.909Z,3.90
2022-09-11T11:38:16.733Z,3.88
2022-09-11T11:40:49.578Z,3.20
2022-09-11T11:43:21.130Z,3.03
2022-09-11T11:46:02.235Z,3.13
2022-09-11T11:48:37.080Z,2.85
2022-09-11T11:51:06.996Z,2.22
2022-09-11T11:53:44.233Z,2.70
2022-09-11T11:56:16.724Z,3.05
2022-09-11T11:59:08.011Z,2.50
2022-09-11T12:01:48.176Z,2.00
2022-09-11T12:04:51.954Z,2.28
2022-09-11T12:07:25.403Z,2.58
2022-09-11T12:09:54.524Z,2.85
2022-09-11T12:12:26.526Z,2.97
2022-09-11T12:14:55.251Z,2.40
2022-09-11T12:17:27.317Z,2.47
2022-09-11T12:20:11.955Z,2.42
2022-09-11T12:22:40.540Z,2.50
2022-09-11T12:25:18.900Z,2.60
2022-09-11T12:27:52.069Z,2.33
2022-09-11T12:30:18.395Z,2.25
2022-09-11T12:32:45.635Z,3.50
2022-09-11T12:35:27.289Z,2.17
2022-09-11T12:37:59.018Z,2.83
2022-09-11T12:40:33.265Z,1.70
2022-09-11T12:43:26.895Z,2.22
2022-09-11T12:45:56.723Z,2.40
2022-09-11T12:48:38.678Z,2.85
2022-09-11T12:51:21.517Z,2.80
2022-09-11T12:53:55.841Z,2.55
2022-09-11T12:56:25.545Z,2.33
2022-09-11T12:59:05.879Z,2.72
2022-09-11T13:01:34.873Z,2.30
2022-09-11T13:04:10.227Z,2.10
2022-09-11T13:06:37.839Z,2.55
2022-09-11T13:09:04.678Z,2.60
2022-09-11T13:11:39.058Z,2.92
2022-09-11T13:14:28.203Z,2.17
2022-09-11T13:17:03.444Z,2.33
2022-09-11T13:19:37.054Z,2.60
2022-09-11T13:22:27.519Z,2.72
2022-09-11T13:25:16.288Z,2.30
2022-09-11T13:27:49.795Z,2.50
2022-09-11T13:30:19.256Z,2.78
2022-09-11T13:32:48.910Z,2.17
2022-09-11T13:35:24.875Z,2.13
2022-09-11T13:38:05.364Z,2.05
2022-09-11T13:40:58.753Z,2.72
2022-09-11T13:43:29.744Z,2.30
2022-09-11T13:46:18.402Z,2.08
2022-09-11T13:48:46.357Z,2.30
2022-09-11T13:51:20.967Z,3.08
2022-09-11T13:53:55.232Z,2.47
2022-09-11T13:56:45.108Z,2.05
2022-09-11T13:59:36.441Z,2.38
2022-09-11T14:02:26.118Z,2.30
2022-09-11T14:05:15.798Z,2.33
2022-09-11T14:07:47.294Z,2.47
2022-09-11T14:10:26.953Z,2.90
2022-09-11T14:13:05.132Z,3.15
2022-09-11T14:15:43.157Z,3.05
2022-09-11T14:18:17.662Z,3.08
2022-09-11T14:20:45.079Z,2.78
2022-09-11T14:23:17.487Z,2.95
2022-09-11T14:26:15.945Z,3.17
2022-09-11T14:28:45.807Z,3.55
2022-09-11T14:31:29.364Z,2.85
2022-09-11T14:34:15.754Z,3.38
2022-09-11T14:37:04.613Z,3.17
2022-09-11T14:39:45.027Z,3.13
2022-09-11T14:42:17.677Z,2.40
2022-09-11T14:44:44.140Z,2.72
2022-09-11T14:47:22.706Z,2.15
2022-09-11T14:49:51.007Z,2.92
2022-09-11T14:52:20.573Z,2.08
2022-09-11T14:54:47.530Z,2.85
2022-09-11T14:57:20.529Z,2.17
2022-09-11T14:59:52.631Z,2.60
2022-09-11T15:02:26.150Z,2.90
2022-09-11T15:04:56.403Z,2.45
2022-09-11T15:07:23.926Z,2.67
2022-09-11T15:09:51.638Z,2.60
2022-09-11T15:12:19.148Z,2.20
2022-09-11T15:14:56.328Z,3.20
2022-09-11T15:17:24.846Z,2.50
2022-09-11T15:19:52.483Z,3.28
2022-09-11T15:22:18.867Z,2.60
2022-09-11T15:24:45.245Z,2.53
2022-09-11T15:27:11.659Z,2.13
2022-09-11T15:29:42.819Z,2.60
2022-09-11T15:32:10.229Z,2.33
2022-09-11T15:34:43.828Z,2.80
2022-09-11T15:37:10.767Z,3.17
2022-09-11T15:39:37.168Z,2.70
2022-09-11T15:42:07.399Z,2.85
2022-09-11T15:44:37.597Z,2.30
2022-09-11T15:47:04.378Z,3.17
2022-09-11T15:49:33.119Z,2.97
2022-09-11T15:52:02.818Z,2.50
2022-09-11T15:54:31.780Z,2.40
2022-09-11T15:56:58.132Z,2.38
2022-09-11T15:59:24.502Z,2.00
2022-09-11T16:01:53.407Z,2.40
2022-09-11T16:04:21.828Z,2.30
2022-09-11T16:06:49.229Z,2.53
2022-09-11T16:09:23.441Z,2.40
2022-09-11T16:11:50.355Z,2.85
2022-09-11T16:14:19.032Z,2.08
2022-09-11T16:16:48.920Z,2.80
2022-09-11T16:19:18.915Z,2.50
2022-09-11T16:21:45.654Z,1.75
2022-09-11T16:24:15.399Z,3.30
2022-09-11T16:26:43.915Z,2.47
2022-09-11T16:29:17.938Z,3.28
2022-09-11T16:31:46.692Z,2.60
2022-09-11T16:34:17.801Z,2.90
2022-09-11T16:36:45.637Z,2.80
2022-09-11T16:39:17.423Z,3.05
2022-09-11T16:41:43.814Z,2.50
2022-09-11T16:44:14.674Z,2.20
2022-09-11T16:46:43.536Z,2.15
2022-09-11T16:49:15.427Z,2.25
2022-09-11T16:51:45.430Z,2.38
2022-09-11T16:54:17.928Z,2.20
2022-09-11T16:56:46.210Z,2.30
2022-09-11T16:59:16.721Z,2.65
2022-09-11T17:01:43.290Z,2.50
2022-09-11T17:04:11.754Z,2.67
2022-09-11T17:06:40.410Z,3.30
2022-09-11T17:09:06.789Z,2.38
2022-09-11T17:11:33.608Z,2.38
2022-09-11T17:14:01.838Z,2.10
2022-09-11T17:16:31.975Z,2.00
2022-09-11T17:19:04.078Z,1.90
2022-09-11T17:21:35.819Z,2.25
2022-09-11T17:24:03.300Z,1.90
2022-09-11T17:26:29.669Z,1.77
2022-09-11T17:28:58.076Z,1.60
2022-09-11T17:31:26.813Z,1.77
2022-09-11T17:33:53.218Z,1.85
2022-09-11T17:36:21.649Z,2.17
2022-09-11T17:38:52.513Z,2.13
2022-09-11T17:41:20.825Z,2.35
2022-09-11T17:43:48.222Z,2.70
2022-09-11T17:46:21.120Z,2.72
2022-09-11T17:48:50.327Z,2.30
2022-09-11T17:51:22.168Z,3.03
2022-09-11T17:53:59.359Z,3.30
2022-09-11T17:56:30.690Z,3.10
2022-09-11T17:58:59.539Z,2.78
2022-09-11T18:01:31.381Z,2.70
2022-09-11T18:03:58.758Z,2.67
2022-09-11T18:06:32.532Z,2.83
2022-09-11T18:09:01.753Z,2.83
2022-09-11T18:11:30.888Z,2.85
2022-09-11T18:13:59.977Z,3.08
2022-09-11T18:16:26.397Z,3.10
2022-09-11T18:18:55.524Z,2.90
2022-09-11T18:21:22.040Z,3.00
2022-09-11T18:23:50.758Z,2.78
2022-09-11T18:26:26.184Z,2.63
2022-09-11T18:29:00.710Z,2.75
2022-09-11T18:31:30.176Z,2.65
2022-09-11T18:34:00.864Z,2.42
2022-09-11T18:36:31.079Z,2.65
2022-09-11T18:39:00.989Z,3.20
2022-09-11T18:41:31.273Z,2.72
2022-09-11T18:44:00.090Z,3.10
2022-09-11T18:46:29.772Z,3.70
2022-09-11T18:48:56.174Z,3.28
2022-09-11T18:51:26.588Z,2.83
2022-09-11T18:53:54.106Z,3.13
2022-09-11T18:56:23.500Z,2.83
2022-09-11T18:58:52.378Z,2.90
2022-09-11T19:01:22.593Z,3.22
2022-09-11T19:03:55.369Z,3.00
2022-09-11T19:06:28.712Z,2.80
2022-09-11T19:08:57.938Z,3.05
2022-09-11T19:11:26.679Z,2.60
2022-09-11T19:13:56.895Z,3.10
2022-09-11T19:16:23.424Z,2.63
2022-09-11T19:18:52.265Z,3.20
2022-09-11T19:21:22.119Z,3.05
2022-09-11T19:23:50.456Z,3.15
2022-09-11T19:26:22.227Z,2.92
2022-09-11T19:28:49.921Z,3.00
2022-09-11T19:31:24.811Z,2.65
2022-09-11T19:33:52.055Z,2.97
2022-09-11T19:36:23.254Z,3.10
2022-09-11T19:39:12.360Z,3.83
2022-09-11T19:41:39.494Z,4.13
2022-09-11T19:44:12.117Z,3.88
2022-09-11T19:46:46.048Z,3.38
2022-09-11T19:49:12.516Z,3.33
2022-09-11T19:51:44.890Z,3.90
2022-09-11T19:54:13.074Z,3.92
2022-09-11T19:56:39.830Z,3.53
2022-09-11T19:59:10.196Z,3.70
2022-09-11T20:01:39.120Z,4.28
2022-09-11T20:04:07.860Z,3.78
2022-09-11T20:06:35.135Z,3.38
2022-09-11T20:11:50.972Z,3.97
2022-09-11T20:14:19.687Z,3.58
2022-09-11T20:16:49.305Z,3.60
2022-09-11T20:19:17.155Z,3.97
2022-09-11T20:21:45.797Z,3.72
2022-09-11T20:24:15.254Z,4.20
2022-09-11T20:26:42.008Z,3.50
2022-09-11T20:29:15.558Z,3.78
2022-09-11T20:31:47.463Z,4.00
2022-09-11T20:34:14.727Z,3.97
2022-09-11T20:36:43.418Z,3.80
2022-09-11T20:39:19.017Z,3.10
2022-09-11T20:41:45.669Z,3.65
2022-09-11T20:44:12.111Z,3.58
2022-09-11T20:46:38.508Z,3.70
2022-09-11T20:49:07.375Z,3.92
2022-09-11T20:51:36.310Z,4.43
2022-09-11T20:54:02.688Z,4.13
2022-09-11T20:56:29.291Z,4.22
2022-09-11T20:58:56.302Z,4.72
2022-09-11T21:01:24.236Z,4.07
2022-09-11T21:03:55.329Z,3.63
2022-09-11T21:06:26.131Z,3.72
2022-09-11T21:09:06.217Z,3.47
2022-09-11T21:11:35.943Z,3.65
2022-09-11T21:14:02.253Z,4.13
2022-09-11T21:16:30.970Z,4.00
2022-09-11T21:18:59.593Z,4.45
2022-09-11T21:21:27.235Z,4.10
2022-09-11T21:23:58.683Z,4.38
2022-09-11T21:26:26.332Z,4.40
2022-09-11T21:28:55.038Z,3.78
2022-09-11T21:31:26.073Z,4.20
2022-09-11T21:33:52.739Z,4.18
2022-09-11T21:36:21.593Z,3.78
2022-09-11T21:38:48.047Z,3.97
2022-09-11T21:41:16.752Z,4.47
2022-09-11T21:43:43.187Z,3.88
2022-09-11T21:46:14.836Z,3.53
2022-09-11T21:48:41.524Z,4.80
2022-09-11T21:51:15.216Z,5.30
2022-09-11T21:53:43.706Z,4.05
2022-09-11T21:56:25.148Z,4.05
2022-09-11T21:58:54.822Z,3.92
2022-09-11T22:01:22.204Z,4.13
2022-09-11T22:03:52.219Z,3.80
2022-09-11T22:06:20.254Z,4.00
2022-09-11T22:08:49.109Z,3.90
2022-09-11T22:11:18.224Z,4.63
2022-09-11T22:13:47.777Z,3.80
2022-09-11T22:16:17.114Z,3.57
2022-09-11T22:18:50.391Z,3.33
2022-09-11T22:21:17.196Z,4.13
2022-09-11T22:23:45.992Z,5.40
2022-09-11T22:26:17.981Z,5.33
2022-09-11T22:28:44.562Z,5.63
2022-09-11T22:31:16.338Z,4.20
2022-09-11T22:33:45.619Z,4.70
2022-09-11T22:36:17.743Z,4.30
2022-09-11T22:38:44.146Z,4.50
2022-09-11T22:41:10.525Z,4.43
2022-09-11T22:43:39.905Z,3.80
2022-09-11T22:46:06.428Z,3.60
2022-09-11T22:48:38.111Z,4.17
2022-09-11T22:51:04.841Z,3.60
2022-09-11T22:53:31.780Z,3.53
2022-09-11T22:55:58.487Z,3.67
2022-09-11T22:58:28.171Z,4.03
2022-09-11T23:00:55.212Z,4.00
2022-09-11T23:03:21.576Z,3.50
2022-09-11T23:06:06.238Z,3.70
2022-09-11T23:08:44.763Z,4.33
2022-09-11T23:11:11.468Z,4.13
2022-09-11T23:13:37.942Z,3.77
2022-09-11T23:16:13.166Z,3.57
2022-09-11T23:18:43.057Z,5.07
2022-09-11T23:21:09.960Z,4.27
2022-09-11T23:23:40.889Z,4.30
2022-09-11T23:26:09.302Z,4.20
2022-09-11T23:28:35.815Z,3.93
2022-09-11T23:31:10.782Z,3.53
2022-09-11T23:33:39.887Z,3.77
2022-09-11T23:36:07.323Z,3.47
2022-09-11T23:38:33.904Z,4.27
2022-09-11T23:41:00.396Z,3.90
2022-09-11T23:43:29.072Z,4.37
2022-09-11T23:45:55.693Z,4.07
2022-09-11T23:48:22.214Z,4.60
2022-09-11T23:50:50.955Z,4.50
2022-09-11T23:53:19.636Z,4.43
2022-09-11T23:55:51.948Z,4.43
2022-09-11T23:58:20.412Z,4.50
